sensor_id;sensor_type;location;lat;lon;timestamp;pressure;altitude;pressure_sealevel;temperature;humidity
67099;BME280;54288;53.046;5.668;2023-03-14T00:00:16;98752.41;;;9.45;100.00
67099;BME280;54288;53.046;5.668;2023-03-14T00:02:42;98756.16;;;9.40;100.00
67099;BME280;54288;53.046;5.668;2023-03-14T00:05:11;98762.53;;;9.34;100.00
67099;BME280;54288;53.046;5.668;2023-03-14T00:07:38;98766.28;;;9.29;100.00
67099;BME280;54288;53.046;5.668;2023-03-14T00:10:10;98758.06;;;9.19;100.00
67099;BME280;54288;53.046;5.668;2023-03-14T00:12:38;98750.66;;;9.10;100.00
67099;BME280;54288;53.046;5.668;2023-03-14T00:15:05;98744.09;;;9.02;100.00
67099;BME280;54288;53.046;5.668;2023-03-14T00:17:33;98749.56;;;8.97;100.00
67099;BME280;54288;53.046;5.668;2023-03-14T00:20:00;98743.97;;;8.86;100.00
67099;BME280;54288;53.046;5.668;2023-03-14T00:22:37;98750.81;;;8.89;100.00
67099;BME280;54288;53.046;5.668;2023-03-14T00:25:04;98743.34;;;8.81;100.00
67099;BME280;54288;53.046;5.668;2023-03-14T00:27:31;98743.41;;;8.80;100.00
67099;BME280;54288;53.046;5.668;2023-03-14T00:29:58;98737.84;;;8.69;100.00
67099;BME280;54288;53.046;5.668;2023-03-14T00:32:24;98738.00;;;8.66;100.00
67099;BME280;54288;53.046;5.668;2023-03-14T00:34:50;98734.06;;;8.57;100.00
67099;BME280;54288;53.046;5.668;2023-03-14T00:37:19;98733.25;;;8.55;100.00
67099;BME280;54288;53.046;5.668;2023-03-14T00:39:45;98730.09;;;8.49;100.00
67099;BME280;54288;53.046;5.668;2023-03-14T00:42:11;98721.84;;;8.58;100.00
67099;BME280;54288;53.046;5.668;2023-03-14T00:44:37;98731.50;;;8.56;100.00
67099;BME280;54288;53.046;5.668;2023-03-14T00:47:07;98737.44;;;8.59;100.00
67099;BME280;54288;53.046;5.668;2023-03-14T00:49:33;98732.91;;;8.63;100.00
67099;BME280;54288;53.046;5.668;2023-03-14T00:51:59;98746.75;;;8.65;100.00
67099;BME280;54288;53.046;5.668;2023-03-14T00:54:25;98738.06;;;8.64;100.00
67099;BME280;54288;53.046;5.668;2023-03-14T00:56:52;98731.50;;;8.74;100.00
67099;BME280;54288;53.046;5.668;2023-03-14T00:59:17;98741.31;;;8.88;100.00
67099;BME280;54288;53.046;5.668;2023-03-14T01:01:44;98734.81;;;8.96;100.00
67099;BME280;54288;53.046;5.668;2023-03-14T01:04:11;98726.53;;;9.05;100.00
67099;BME280;54288;53.046;5.668;2023-03-14T01:06:38;98726.09;;;9.14;100.00
67099;BME280;54288;53.046;5.668;2023-03-14T01:09:04;98716.34;;;9.18;100.00
67099;BME280;54288;53.046;5.668;2023-03-14T01:11:33;98728.19;;;9.25;100.00
67099;BME280;54288;53.046;5.668;2023-03-14T01:14:03;98719.41;;;9.26;100.00
67099;BME280;54288;53.046;5.668;2023-03-14T01:16:32;98732.47;;;9.26;100.00
67099;BME280;54288;53.046;5.668;2023-03-14T01:19:02;98735.00;;;9.27;100.00
67099;BME280;54288;53.046;5.668;2023-03-14T01:21:31;98728.88;;;9.28;100.00
67099;BME280;54288;53.046;5.668;2023-03-14T01:23:59;98730.78;;;9.25;100.00
67099;BME280;54288;53.046;5.668;2023-03-14T01:26:27;98739.38;;;9.27;100.00
67099;BME280;54288;53.046;5.668;2023-03-14T01:28:55;98722.03;;;9.26;100.00
67099;BME280;54288;53.046;5.668;2023-03-14T01:31:23;98724.63;;;9.26;100.00
67099;BME280;54288;53.046;5.668;2023-03-14T01:33:50;98724.75;;;9.24;100.00
67099;BME280;54288;53.046;5.668;2023-03-14T01:36:16;98723.88;;;9.24;100.00
67099;BME280;54288;53.046;5.668;2023-03-14T01:38:44;98722.19;;;9.23;100.00
67099;BME280;54288;53.046;5.668;2023-03-14T01:41:15;98717.03;;;9.21;100.00
67099;BME280;54288;53.046;5.668;2023-03-14T01:43:43;98718.88;;;9.19;100.00
67099;BME280;54288;53.046;5.668;2023-03-14T01:54:05;98715.31;;;9.03;100.00
67099;BME280;54288;53.046;5.668;2023-03-14T01:56:34;98712.22;;;8.95;100.00
67099;BME280;54288;53.046;5.668;2023-03-14T01:59:04;98712.59;;;8.88;100.00
67099;BME280;54288;53.046;5.668;2023-03-14T02:01:32;98713.59;;;8.85;100.00
67099;BME280;54288;53.046;5.668;2023-03-14T02:04:02;98700.91;;;8.78;100.00
67099;BME280;54288;53.046;5.668;2023-03-14T02:06:42;98693.19;;;8.75;100.00
67099;BME280;54288;53.046;5.668;2023-03-14T02:09:14;98705.41;;;8.74;100.00
67099;BME280;54288;53.046;5.668;2023-03-14T02:11:40;98693.41;;;8.70;100.00
67099;BME280;54288;53.046;5.668;2023-03-14T02:14:29;98698.50;;;8.73;100.00
67099;BME280;54288;53.046;5.668;2023-03-14T02:17:18;98707.16;;;8.74;100.00
67099;BME280;54288;53.046;5.668;2023-03-14T02:22:46;98695.97;;;8.72;100.00
67099;BME280;54288;53.046;5.668;2023-03-14T02:28:11;98692.78;;;8.65;100.00
67099;BME280;54288;53.046;5.668;2023-03-14T02:30:38;98691.97;;;8.65;100.00
67099;BME280;54288;53.046;5.668;2023-03-14T02:33:11;98690.47;;;8.59;100.00
67099;BME280;54288;53.046;5.668;2023-03-14T02:35:53;98689.78;;;8.56;100.00
67099;BME280;54288;53.046;5.668;2023-03-14T02:41:14;98690.63;;;8.56;100.00
67099;BME280;54288;53.046;5.668;2023-03-14T02:43:45;98681.03;;;8.57;100.00
67099;BME280;54288;53.046;5.668;2023-03-14T02:46:14;98680.09;;;8.58;100.00
67099;BME280;54288;53.046;5.668;2023-03-14T02:48:49;98679.97;;;8.61;100.00
67099;BME280;54288;53.046;5.668;2023-03-14T02:51:17;98685.13;;;8.62;100.00
67099;BME280;54288;53.046;5.668;2023-03-14T02:53:46;98683.28;;;8.64;100.00
67099;BME280;54288;53.046;5.668;2023-03-14T02:56:13;98678.81;;;8.66;100.00
67099;BME280;54288;53.046;5.668;2023-03-14T02:58:39;98676.16;;;8.68;100.00
67099;BME280;54288;53.046;5.668;2023-03-14T03:01:25;98679.53;;;8.70;100.00
67099;BME280;54288;53.046;5.668;2023-03-14T03:03:51;98670.00;;;8.69;100.00
67099;BME280;54288;53.046;5.668;2023-03-14T03:06:18;98668.31;;;8.68;100.00
67099;BME280;54288;53.046;5.668;2023-03-14T03:08:44;98671.84;;;8.67;100.00
67099;BME280;54288;53.046;5.668;2023-03-14T03:11:10;98677.13;;;8.65;100.00
67099;BME280;54288;53.046;5.668;2023-03-14T03:13:36;98665.78;;;8.66;100.00
67099;BME280;54288;53.046;5.668;2023-03-14T03:16:04;98662.19;;;8.69;100.00
67099;BME280;54288;53.046;5.668;2023-03-14T03:18:30;98669.31;;;8.65;100.00
67099;BME280;54288;53.046;5.668;2023-03-14T03:21:03;98658.88;;;8.65;100.00
67099;BME280;54288;53.046;5.668;2023-03-14T03:23:29;98663.25;;;8.65;100.00
67099;BME280;54288;53.046;5.668;2023-03-14T03:25:57;98665.00;;;8.64;100.00
67099;BME280;54288;53.046;5.668;2023-03-14T03:28:23;98663.34;;;8.63;100.00
67099;BME280;54288;53.046;5.668;2023-03-14T03:30:50;98671.97;;;8.64;100.00
67099;BME280;54288;53.046;5.668;2023-03-14T03:33:15;98662.41;;;8.64;100.00
67099;BME280;54288;53.046;5.668;2023-03-14T03:35:48;98666.75;;;8.64;100.00
67099;BME280;54288;53.046;5.668;2023-03-14T03:38:18;98652.91;;;8.63;100.00
67099;BME280;54288;53.046;5.668;2023-03-14T03:40:47;98662.47;;;8.63;100.00
67099;BME280;54288;53.046;5.668;2023-03-14T03:43:13;98669.53;;;8.61;100.00
67099;BME280;54288;53.046;5.668;2023-03-14T03:45:42;98659.94;;;8.61;100.00
67099;BME280;54288;53.046;5.668;2023-03-14T03:48:08;98664.25;;;8.62;100.00
67099;BME280;54288;53.046;5.668;2023-03-14T03:50:34;98654.50;;;8.66;100.00
67099;BME280;54288;53.046;5.668;2023-03-14T03:52:59;98666.63;;;8.67;100.00
67099;BME280;54288;53.046;5.668;2023-03-14T03:55:25;98663.97;;;8.68;100.00
67099;BME280;54288;53.046;5.668;2023-03-14T03:57:53;98675.16;;;8.70;100.00
67099;BME280;54288;53.046;5.668;2023-03-14T04:00:19;98670.69;;;8.72;100.00
67099;BME280;54288;53.046;5.668;2023-03-14T04:02:46;98669.88;;;8.72;100.00
67099;BME280;54288;53.046;5.668;2023-03-14T04:05:14;98671.56;;;8.73;100.00
67099;BME280;54288;53.046;5.668;2023-03-14T04:07:46;98661.13;;;8.73;100.00
67099;BME280;54288;53.046;5.668;2023-03-14T04:10:16;98663.72;;;8.73;100.00
67099;BME280;54288;53.046;5.668;2023-03-14T04:12:54;98668.94;;;8.73;100.00
67099;BME280;54288;53.046;5.668;2023-03-14T04:15:23;98661.13;;;8.73;100.00
67099;BME280;54288;53.046;5.668;2023-03-14T04:17:51;98668.09;;;8.72;100.00
67099;BME280;54288;53.046;5.668;2023-03-14T04:20:16;98671.41;;;8.76;100.00
67099;BME280;54288;53.046;5.668;2023-03-14T04:22:42;98668.72;;;8.77;100.00
67099;BME280;54288;53.046;5.668;2023-03-14T04:25:08;98668.66;;;8.79;100.00
67099;BME280;54288;53.046;5.668;2023-03-14T04:27:39;98665.41;;;8.74;100.00
67099;BME280;54288;53.046;5.668;2023-03-14T04:30:11;98666.56;;;8.68;100.00
67099;BME280;54288;53.046;5.668;2023-03-14T04:32:55;98675.56;;;8.61;100.00
67099;BME280;54288;53.046;5.668;2023-03-14T04:35:23;98678.47;;;8.55;100.00
67099;BME280;54288;53.046;5.668;2023-03-14T04:37:53;98676.94;;;8.51;100.00
67099;BME280;54288;53.046;5.668;2023-03-14T04:40:19;98665.81;;;8.48;100.00
67099;BME280;54288;53.046;5.668;2023-03-14T04:42:46;98665.94;;;8.45;100.00
67099;BME280;54288;53.046;5.668;2023-03-14T04:45:13;98673.84;;;8.43;100.00
67099;BME280;54288;53.046;5.668;2023-03-14T04:47:40;98663.56;;;8.40;100.00
67099;BME280;54288;53.046;5.668;2023-03-14T04:50:08;98658.53;;;8.36;100.00
67099;BME280;54288;53.046;5.668;2023-03-14T04:52:34;98663.63;;;8.39;100.00
67099;BME280;54288;53.046;5.668;2023-03-14T04:55:00;98660.94;;;8.40;100.00
67099;BME280;54288;53.046;5.668;2023-03-14T04:57:26;98652.28;;;8.40;100.00
67099;BME280;54288;53.046;5.668;2023-03-14T04:59:53;98672.31;;;8.39;100.00
67099;BME280;54288;53.046;5.668;2023-03-14T05:02:39;98663.63;;;8.39;100.00
67099;BME280;54288;53.046;5.668;2023-03-14T05:05:21;98674.81;;;8.41;100.00
67099;BME280;54288;53.046;5.668;2023-03-14T05:08:05;98664.25;;;8.44;100.00
67099;BME280;54288;53.046;5.668;2023-03-14T05:10:58;98661.72;;;8.42;100.00
67099;BME280;54288;53.046;5.668;2023-03-14T05:13:52;98664.25;;;8.44;100.00
67099;BME280;54288;53.046;5.668;2023-03-14T05:16:44;98676.44;;;8.43;100.00
67099;BME280;54288;53.046;5.668;2023-03-14T05:19:19;98666.94;;;8.42;100.00
67099;BME280;54288;53.046;5.668;2023-03-14T05:22:06;98667.00;;;8.41;100.00
67099;BME280;54288;53.046;5.668;2023-03-14T05:24:41;98665.25;;;8.41;100.00
67099;BME280;54288;53.046;5.668;2023-03-14T05:27:30;98652.44;;;8.37;100.00
67099;BME280;54288;53.046;5.668;2023-03-14T05:30:08;98653.31;;;8.36;100.00
67099;BME280;54288;53.046;5.668;2023-03-14T05:32:53;98668.06;;;8.37;100.00
67099;BME280;54288;53.046;5.668;2023-03-14T05:35:32;98651.72;;;8.33;100.00
67099;BME280;54288;53.046;5.668;2023-03-14T05:38:09;98664.88;;;8.30;100.00
67099;BME280;54288;53.046;5.668;2023-03-14T05:40:35;98676.25;;;8.29;100.00
67099;BME280;54288;53.046;5.668;2023-03-14T05:43:09;98681.69;;;8.25;100.00
67099;BME280;54288;53.046;5.668;2023-03-14T05:45:49;98693.00;;;8.24;100.00
67099;BME280;54288;53.046;5.668;2023-03-14T05:48:36;98702.31;;;8.09;100.00
67099;BME280;54288;53.046;5.668;2023-03-14T05:51:12;98711.53;;;7.98;100.00
67099;BME280;54288;53.046;5.668;2023-03-14T05:53:49;98721.63;;;7.85;100.00
67099;BME280;54288;53.046;5.668;2023-03-14T05:56:33;98736.38;;;7.66;100.00
67099;BME280;54288;53.046;5.668;2023-03-14T05:59:28;98732.56;;;7.53;100.00
67099;BME280;54288;53.046;5.668;2023-03-14T06:02:03;98746.00;;;7.44;100.00
67099;BME280;54288;53.046;5.668;2023-03-14T06:04:38;98761.97;;;7.35;100.00
67099;BME280;54288;53.046;5.668;2023-03-14T06:07:04;98769.38;;;7.24;100.00
67099;BME280;54288;53.046;5.668;2023-03-14T06:09:30;98769.56;;;7.20;100.00
67099;BME280;54288;53.046;5.668;2023-03-14T06:11:59;98788.06;;;7.12;100.00
67099;BME280;54288;53.046;5.668;2023-03-14T06:14:25;98791.41;;;6.94;100.00
67099;BME280;54288;53.046;5.668;2023-03-14T06:16:52;98815.25;;;6.61;100.00
67099;BME280;54288;53.046;5.668;2023-03-14T06:19:20;98825.19;;;6.25;100.00
67099;BME280;54288;53.046;5.668;2023-03-14T06:21:46;98840.03;;;5.97;100.00
67099;BME280;54288;53.046;5.668;2023-03-14T06:24:15;98848.41;;;5.79;100.00
67099;BME280;54288;53.046;5.668;2023-03-14T06:26:45;98861.16;;;5.61;100.00
67099;BME280;54288;53.046;5.668;2023-03-14T06:29:11;98865.88;;;5.48;100.00
67099;BME280;54288;53.046;5.668;2023-03-14T06:31:37;98881.00;;;5.36;100.00
67099;BME280;54288;53.046;5.668;2023-03-14T06:34:05;98888.22;;;5.26;100.00
67099;BME280;54288;53.046;5.668;2023-03-14T06:36:32;98905.00;;;5.15;100.00
67099;BME280;54288;53.046;5.668;2023-03-14T06:38:58;98915.75;;;5.01;100.00
67099;BME280;54288;53.046;5.668;2023-03-14T06:41:25;98930.56;;;4.98;100.00
67099;BME280;54288;53.046;5.668;2023-03-14T06:43:52;98941.13;;;4.92;100.00
67099;BME280;54288;53.046;5.668;2023-03-14T06:46:19;98955.16;;;4.85;100.00
67099;BME280;54288;53.046;5.668;2023-03-14T06:48:45;98974.31;;;4.79;100.00
67099;BME280;54288;53.046;5.668;2023-03-14T06:51:12;98974.38;;;4.78;100.00
67099;BME280;54288;53.046;5.668;2023-03-14T06:53:38;98988.38;;;4.71;100.00
67099;BME280;54288;53.046;5.668;2023-03-14T06:56:04;99000.53;;;4.69;100.00
67099;BME280;54288;53.046;5.668;2023-03-14T06:58:32;99005.88;;;4.63;100.00
67099;BME280;54288;53.046;5.668;2023-03-14T07:00:59;99013.63;;;4.64;100.00
67099;BME280;54288;53.046;5.668;2023-03-14T07:03:30;99032.63;;;4.63;100.00
67099;BME280;54288;53.046;5.668;2023-03-14T07:05:56;99033.50;;;4.64;100.00
67099;BME280;54288;53.046;5.668;2023-03-14T07:08:22;99043.97;;;4.61;100.00
67099;BME280;54288;53.046;5.668;2023-03-14T07:10:48;99071.59;;;4.60;100.00
67099;BME280;54288;53.046;5.668;2023-03-14T07:13:13;99083.50;;;4.67;100.00
67099;BME280;54288;53.046;5.668;2023-03-14T07:15:49;99094.81;;;4.65;100.00
67099;BME280;54288;53.046;5.668;2023-03-14T07:18:15;99112.19;;;4.61;100.00
67099;BME280;54288;53.046;5.668;2023-03-14T07:20:40;99128.66;;;4.59;100.00
67099;BME280;54288;53.046;5.668;2023-03-14T07:23:07;99140.03;;;4.53;100.00
67099;BME280;54288;53.046;5.668;2023-03-14T07:25:40;99144.38;;;4.51;100.00
67099;BME280;54288;53.046;5.668;2023-03-14T07:28:08;99169.38;;;4.54;100.00
67099;BME280;54288;53.046;5.668;2023-03-14T07:30:37;99175.44;;;4.54;100.00
67099;BME280;54288;53.046;5.668;2023-03-14T07:33:35;99183.06;;;4.60;100.00
67099;BME280;54288;53.046;5.668;2023-03-14T07:36:04;99181.28;;;4.62;100.00
67099;BME280;54288;53.046;5.668;2023-03-14T07:38:31;99193.09;;;4.75;100.00
67099;BME280;54288;53.046;5.668;2023-03-14T07:41:16;99193.75;;;4.83;100.00
67099;BME280;54288;53.046;5.668;2023-03-14T07:43:56;99204.09;;;4.85;100.00
67099;BME280;54288;53.046;5.668;2023-03-14T07:46:22;99197.25;;;4.82;100.00
67099;BME280;54288;53.046;5.668;2023-03-14T07:48:49;99221.22;;;4.92;100.00
67099;BME280;54288;53.046;5.668;2023-03-14T07:51:15;99235.72;;;4.99;100.00
67099;BME280;54288;53.046;5.668;2023-03-14T07:53:41;99241.63;;;5.05;100.00
67099;BME280;54288;53.046;5.668;2023-03-14T07:56:09;99236.28;;;5.11;100.00
67099;BME280;54288;53.046;5.668;2023-03-14T07:58:35;99255.41;;;5.07;100.00
67099;BME280;54288;53.046;5.668;2023-03-14T08:01:02;99261.31;;;5.14;100.00
67099;BME280;54288;53.046;5.668;2023-03-14T08:03:33;99262.09;;;5.17;100.00
67099;BME280;54288;53.046;5.668;2023-03-14T08:19:21;99314.84;;;5.53;100.00
67099;BME280;54288;53.046;5.668;2023-03-14T08:21:47;99316.31;;;5.63;100.00
67099;BME280;54288;53.046;5.668;2023-03-14T08:24:13;99330.81;;;5.71;100.00
67099;BME280;54288;53.046;5.668;2023-03-14T08:26:38;99326.34;;;5.76;100.00
67099;BME280;54288;53.046;5.668;2023-03-14T08:29:04;99350.34;;;5.87;100.00
67099;BME280;54288;53.046;5.668;2023-03-14T08:31:30;99343.22;;;5.95;100.00
67099;BME280;54288;53.046;5.668;2023-03-14T08:33:59;99346.63;;;5.97;100.00
67099;BME280;54288;53.046;5.668;2023-03-14T08:36:25;99357.50;;;6.11;100.00
67099;BME280;54288;53.046;5.668;2023-03-14T08:38:51;99359.25;;;6.12;100.00
67099;BME280;54288;53.046;5.668;2023-03-14T08:41:17;99383.81;;;5.99;100.00
67099;BME280;54288;53.046;5.668;2023-03-14T08:43:42;99387.72;;;5.83;100.00
67099;BME280;54288;53.046;5.668;2023-03-14T08:46:08;99424.25;;;5.74;100.00
67099;BME280;54288;53.046;5.668;2023-03-14T08:48:34;99438.59;;;5.52;100.00
67099;BME280;54288;53.046;5.668;2023-03-14T08:51:13;99445.38;;;5.21;100.00
67099;BME280;54288;53.046;5.668;2023-03-14T08:53:40;99445.72;;;5.05;100.00
67099;BME280;54288;53.046;5.668;2023-03-14T08:56:07;99447.31;;;5.12;100.00
67099;BME280;54288;53.046;5.668;2023-03-14T08:58:35;99471.38;;;5.18;100.00
67099;BME280;54288;53.046;5.668;2023-03-14T09:01:08;99480.78;;;5.24;100.00
67099;BME280;54288;53.046;5.668;2023-03-14T09:03:33;99477.84;;;5.39;100.00
67099;BME280;54288;53.046;5.668;2023-03-14T09:06:04;99499.22;;;5.51;100.00
67099;BME280;54288;53.046;5.668;2023-03-14T09:08:30;99500.66;;;5.64;100.00
67099;BME280;54288;53.046;5.668;2023-03-14T09:10:56;99514.53;;;5.63;100.00
67099;BME280;54288;53.046;5.668;2023-03-14T09:13:22;99523.09;;;5.67;100.00
67099;BME280;54288;53.046;5.668;2023-03-14T09:15:54;99543.03;;;5.66;100.00
67099;BME280;54288;53.046;5.668;2023-03-14T09:18:20;99543.84;;;5.68;100.00
67099;BME280;54288;53.046;5.668;2023-03-14T09:20:46;99556.59;;;5.80;100.00
67099;BME280;54288;53.046;5.668;2023-03-14T09:23:12;99567.81;;;5.82;100.00
67099;BME280;54288;53.046;5.668;2023-03-14T09:25:38;99571.31;;;5.80;100.00
67099;BME280;54288;53.046;5.668;2023-03-14T09:28:04;99576.50;;;5.80;100.00
67099;BME280;54288;53.046;5.668;2023-03-14T09:30:29;99592.84;;;5.85;100.00
67099;BME280;54288;53.046;5.668;2023-03-14T09:32:55;99595.19;;;5.97;100.00
67099;BME280;54288;53.046;5.668;2023-03-14T09:35:23;99612.41;;;6.02;100.00
67099;BME280;54288;53.046;5.668;2023-03-14T09:37:48;99620.97;;;6.06;100.00
67099;BME280;54288;53.046;5.668;2023-03-14T09:40:16;99628.66;;;6.10;100.00
67099;BME280;54288;53.046;5.668;2023-03-14T09:42:42;99639.00;;;6.15;100.00
67099;BME280;54288;53.046;5.668;2023-03-14T09:45:35;99649.31;;;6.18;100.00
67099;BME280;54288;53.046;5.668;2023-03-14T09:48:04;99665.53;;;6.27;100.00
67099;BME280;54288;53.046;5.668;2023-03-14T09:50:38;99677.31;;;6.43;100.00
67099;BME280;54288;53.046;5.668;2023-03-14T09:53:11;99685.22;;;6.40;100.00
67099;BME280;54288;53.046;5.668;2023-03-14T09:55:42;99688.09;;;6.27;98.99
67099;BME280;54288;53.046;5.668;2023-03-14T09:58:21;99702.16;;;6.18;99.32
67099;BME280;54288;53.046;5.668;2023-03-14T10:00:49;99715.84;;;6.26;99.90
67099;BME280;54288;53.046;5.668;2023-03-14T10:03:26;99723.72;;;6.23;97.65
67099;BME280;54288;53.046;5.668;2023-03-14T10:05:56;99730.16;;;6.03;97.98
67099;BME280;54288;53.046;5.668;2023-03-14T10:08:21;99736.38;;;6.76;97.22
67099;BME280;54288;53.046;5.668;2023-03-14T10:10:47;99737.66;;;7.30;89.33
67099;BME280;54288;53.046;5.668;2023-03-14T10:13:17;99736.81;;;7.95;89.12
67099;BME280;54288;53.046;5.668;2023-03-14T10:15:52;99754.53;;;7.83;84.02
67099;BME280;54288;53.046;5.668;2023-03-14T10:18:18;99758.03;;;7.13;86.16
67099;BME280;54288;53.046;5.668;2023-03-14T10:20:49;99766.38;;;7.29;86.58
67099;BME280;54288;53.046;5.668;2023-03-14T10:25:46;99778.00;;;8.45;79.28
67099;BME280;54288;53.046;5.668;2023-03-14T10:28:30;99790.50;;;8.02;76.06
67099;BME280;54288;53.046;5.668;2023-03-14T10:30:57;99801.97;;;7.62;77.93
67099;BME280;54288;53.046;5.668;2023-03-14T10:33:29;99806.53;;;7.54;78.52
67099;BME280;54288;53.046;5.668;2023-03-14T10:36:03;99814.66;;;8.09;75.45
67099;BME280;54288;53.046;5.668;2023-03-14T10:38:31;99816.97;;;8.51;72.26
67099;BME280;54288;53.046;5.668;2023-03-14T10:40:58;99833.66;;;9.04;72.75
67099;BME280;54288;53.046;5.668;2023-03-14T10:43:35;99842.53;;;8.39;72.14
67099;BME280;54288;53.046;5.668;2023-03-14T10:46:18;99857.19;;;8.11;76.23
67099;BME280;54288;53.046;5.668;2023-03-14T10:49:06;99865.81;;;7.44;78.87
67099;BME280;54288;53.046;5.668;2023-03-14T10:51:32;99872.69;;;7.48;78.55
67099;BME280;54288;53.046;5.668;2023-03-14T10:56:37;99892.69;;;8.48;70.19
67099;BME280;54288;53.046;5.668;2023-03-14T10:59:07;99899.38;;;8.58;69.86
67099;BME280;54288;53.046;5.668;2023-03-14T11:01:58;99905.16;;;9.00;68.95
67099;BME280;54288;53.046;5.668;2023-03-14T11:07:34;99917.38;;;9.27;60.57
67099;BME280;54288;53.046;5.668;2023-03-14T11:13:01;99947.72;;;9.32;62.06
67099;BME280;54288;53.046;5.668;2023-03-14T11:15:53;99945.81;;;9.08;58.18
67099;BME280;54288;53.046;5.668;2023-03-14T11:18:53;99954.72;;;9.01;61.97
67099;BME280;54288;53.046;5.668;2023-03-14T11:27:45;99975.34;;;9.10;62.29
67099;BME280;54288;53.046;5.668;2023-03-14T11:30:26;99988.44;;;9.39;59.58
67099;BME280;54288;53.046;5.668;2023-03-14T11:33:14;99999.53;;;8.86;60.77
67099;BME280;54288;53.046;5.668;2023-03-14T11:35:53;100007.94;;;8.97;63.12
67099;BME280;54288;53.046;5.668;2023-03-14T11:41:14;99997.91;;;9.43;61.00
67099;BME280;54288;53.046;5.668;2023-03-14T11:43:41;100033.19;;;8.97;63.61
67099;BME280;54288;53.046;5.668;2023-03-14T11:46:46;100040.72;;;8.75;65.57
67099;BME280;54288;53.046;5.668;2023-03-14T11:52:05;100055.94;;;8.25;64.60
67099;BME280;54288;53.046;5.668;2023-03-14T11:57:26;100067.66;;;8.42;64.17
67099;BME280;54288;53.046;5.668;2023-03-14T12:00:13;100075.59;;;8.73;65.51
67099;BME280;54288;53.046;5.668;2023-03-14T12:03:11;100073.91;;;9.36;64.03
67099;BME280;54288;53.046;5.668;2023-03-14T12:10:58;100107.53;;;8.82;64.53
67099;BME280;54288;53.046;5.668;2023-03-14T12:13:29;100110.78;;;8.57;60.42
67099;BME280;54288;53.046;5.668;2023-03-14T12:16:00;100125.16;;;8.39;57.61
67099;BME280;54288;53.046;5.668;2023-03-14T12:18:37;100130.97;;;8.50;58.32
67099;BME280;54288;53.046;5.668;2023-03-14T12:21:11;100129.22;;;8.49;55.75
67099;BME280;54288;53.046;5.668;2023-03-14T12:23:52;100131.91;;;8.48;57.98
67099;BME280;54288;53.046;5.668;2023-03-14T12:26:22;100142.97;;;8.57;58.65
67099;BME280;54288;53.046;5.668;2023-03-14T12:42:04;100172.94;;;8.78;58.02
67099;BME280;54288;53.046;5.668;2023-03-14T12:47:00;100178.16;;;8.40;58.36
67099;BME280;54288;53.046;5.668;2023-03-14T12:49:52;100195.38;;;8.07;60.29
67099;BME280;54288;53.046;5.668;2023-03-14T12:53:33;100196.84;;;7.76;61.27
67099;BME280;54288;53.046;5.668;2023-03-14T13:01:07;100209.75;;;8.26;60.94
67099;BME280;54288;53.046;5.668;2023-03-14T13:06:11;100226.97;;;8.35;60.67
67099;BME280;54288;53.046;5.668;2023-03-14T13:08:39;100225.53;;;8.20;60.45
67099;BME280;54288;53.046;5.668;2023-03-14T13:11:23;100228.34;;;8.52;60.87
67099;BME280;54288;53.046;5.668;2023-03-14T13:16:31;100234.38;;;8.53;56.41
67099;BME280;54288;53.046;5.668;2023-03-14T13:19:11;100242.41;;;8.01;56.75
67099;BME280;54288;53.046;5.668;2023-03-14T13:21:40;100257.69;;;7.75;59.38
67099;BME280;54288;53.046;5.668;2023-03-14T13:24:20;100261.31;;;7.67;59.00
67099;BME280;54288;53.046;5.668;2023-03-14T13:26:46;100274.19;;;7.77;59.22
67099;BME280;54288;53.046;5.668;2023-03-14T13:29:28;100260.94;;;7.86;60.14
67099;BME280;54288;53.046;5.668;2023-03-14T13:32:00;100263.63;;;8.27;59.49
67099;BME280;54288;53.046;5.668;2023-03-14T13:34:31;100284.94;;;8.49;57.23
67099;BME280;54288;53.046;5.668;2023-03-14T13:36:58;100280.56;;;8.49;57.22
67099;BME280;54288;53.046;5.668;2023-03-14T13:39:25;100291.25;;;8.37;57.18
67099;BME280;54288;53.046;5.668;2023-03-14T13:41:52;100292.41;;;8.65;58.38
67099;BME280;54288;53.046;5.668;2023-03-14T13:44:29;100295.25;;;8.93;58.28
67099;BME280;54288;53.046;5.668;2023-03-14T13:47:00;100298.56;;;9.01;55.56
67099;BME280;54288;53.046;5.668;2023-03-14T13:49:29;100306.69;;;8.89;57.23
67099;BME280;54288;53.046;5.668;2023-03-14T13:51:58;100311.75;;;8.96;58.12
67099;BME280;54288;53.046;5.668;2023-03-14T13:54:26;100320.09;;;8.72;56.04
67099;BME280;54288;53.046;5.668;2023-03-14T13:57:00;100324.81;;;8.55;57.33
67099;BME280;54288;53.046;5.668;2023-03-14T13:59:32;100329.00;;;8.18;59.61
67099;BME280;54288;53.046;5.668;2023-03-14T14:02:01;100339.22;;;7.83;61.24
67099;BME280;54288;53.046;5.668;2023-03-14T14:04:33;100361.34;;;7.58;60.68
67099;BME280;54288;53.046;5.668;2023-03-14T14:07:09;100361.31;;;7.61;63.38
67099;BME280;54288;53.046;5.668;2023-03-14T14:09:40;100353.19;;;7.79;61.92
67099;BME280;54288;53.046;5.668;2023-03-14T14:12:17;100362.13;;;8.15;62.20
67099;BME280;54288;53.046;5.668;2023-03-14T14:14:57;100363.28;;;8.46;62.50
67099;BME280;54288;53.046;5.668;2023-03-14T14:17:32;100368.06;;;8.67;61.18
67099;BME280;54288;53.046;5.668;2023-03-14T14:20:00;100378.25;;;8.36;60.84
67099;BME280;54288;53.046;5.668;2023-03-14T14:22:29;100398.03;;;7.99;63.83
67099;BME280;54288;53.046;5.668;2023-03-14T14:24:55;100402.69;;;7.81;64.58
67099;BME280;54288;53.046;5.668;2023-03-14T14:32:35;100422.53;;;7.89;68.81
67099;BME280;54288;53.046;5.668;2023-03-14T14:35:02;100424.44;;;7.80;69.01
67099;BME280;54288;53.046;5.668;2023-03-14T14:37:32;100426.50;;;7.58;70.00
67099;BME280;54288;53.046;5.668;2023-03-14T14:40:08;100433.19;;;7.76;70.00
67099;BME280;54288;53.046;5.668;2023-03-14T14:42:40;100430.47;;;7.83;67.98
67099;BME280;54288;53.046;5.668;2023-03-14T14:45:09;100444.69;;;7.61;68.56
67099;BME280;54288;53.046;5.668;2023-03-14T14:47:53;100447.34;;;7.58;65.30
67099;BME280;54288;53.046;5.668;2023-03-14T14:50:38;100460.09;;;7.76;58.16
67099;BME280;54288;53.046;5.668;2023-03-14T14:53:36;100461.84;;;7.77;58.11
67099;BME280;54288;53.046;5.668;2023-03-14T14:56:25;100464.38;;;7.80;57.91